createdAt,value
2023-01-10T00:03:38.884Z,100165.96
2023-01-10T00:18:30.550Z,100195.89
2023-01-10T00:33:20.929Z,100220.83
2023-01-10T00:48:11.169Z,100258.72
2023-01-10T01:03:00.581Z,100297.44
2023-01-10T01:17:51.113Z,100351.08
2023-01-10T01:32:41.612Z,100396.83
2023-01-10T01:47:32.008Z,100445.59
2023-01-10T02:02:25.970Z,100475.94
2023-01-10T02:17:19.918Z,100517.15
2023-01-10T02:32:16.251Z,100543.28
2023-01-10T02:47:10.689Z,100555.34
2023-01-10T03:02:12.982Z,100579.95
2023-01-10T03:17:07.302Z,100592.36
2023-01-10T03:31:58.360Z,100632.04
2023-01-10T03:46:53.695Z,100651.10
2023-01-10T04:01:48.403Z,100671.67
2023-01-10T04:16:39.289Z,100703.11
2023-01-10T04:31:30.026Z,100736.42
2023-01-10T04:46:20.948Z,100750.54
2023-01-10T05:01:11.539Z,100776.45
2023-01-10T05:16:01.873Z,100790.06
2023-01-10T05:30:52.164Z,100809.36
2023-01-10T05:45:42.874Z,100808.95
2023-01-10T06:00:36.933Z,100840.23
2023-01-10T06:15:29.145Z,100864.37
2023-01-10T06:30:20.947Z,100874.45
2023-01-10T06:45:13.405Z,100912.63
2023-01-10T07:00:07.066Z,100907.00
2023-01-10T07:14:59.805Z,100961.18
2023-01-10T07:29:50.472Z,100983.95
2023-01-10T07:44:41.111Z,101003.28
2023-01-10T07:59:28.343Z,101015.14
2023-01-10T08:14:19.441Z,101032.11
2023-01-10T08:29:09.660Z,101050.87
2023-01-10T08:44:01.218Z,101070.10
2023-01-10T08:58:52.132Z,101053.69
2023-01-10T09:13:43.118Z,101065.83
2023-01-10T09:28:33.070Z,101086.68
2023-01-10T09:43:29.032Z,101126.27
2023-01-10T09:58:24.123Z,101128.83
2023-01-10T10:13:33.313Z,101138.88
2023-01-10T10:28:46.610Z,101133.86
2023-01-10T10:43:32.244Z,101133.16
2023-01-10T10:58:22.829Z,101139.25
2023-01-10T11:13:34.726Z,101123.99
2023-01-10T11:28:31.854Z,101123.33
2023-01-10T11:43:28.682Z,101112.50
2023-01-10T11:58:23.820Z,101099.94
2023-01-10T12:28:05.380Z,101055.25
2023-01-10T12:43:18.179Z,101059.62
2023-01-10T12:58:17.769Z,101034.25
2023-01-10T13:13:34.369Z,101027.59
2023-01-10T13:28:30.722Z,101018.16
2023-01-10T13:43:30.834Z,101027.11
2023-01-10T13:58:26.077Z,101022.04
2023-01-10T14:13:17.193Z,101010.80
2023-01-10T14:28:07.667Z,100990.96
2023-01-10T14:42:59.630Z,100973.42
2023-01-10T14:57:57.884Z,100959.80
2023-01-10T15:12:52.948Z,100950.45
2023-01-10T15:27:43.621Z,100956.00
2023-01-10T15:42:34.988Z,100931.80
2023-01-10T15:57:29.797Z,100913.20
2023-01-10T16:12:54.869Z,100908.16
2023-01-10T16:27:54.118Z,100884.03
2023-01-10T16:43:04.826Z,100876.19
2023-01-10T16:58:01.306Z,100864.83
2023-01-10T17:12:52.245Z,100854.39
2023-01-10T17:27:42.661Z,100846.91
2023-01-10T17:42:32.308Z,100836.39
2023-01-10T17:57:22.129Z,100820.10
2023-01-10T18:12:12.642Z,100794.09
2023-01-10T18:27:03.305Z,100778.66
2023-01-10T18:41:53.548Z,100772.84
2023-01-10T18:56:45.166Z,100761.69
2023-01-10T19:11:35.110Z,100740.04
2023-01-10T19:26:25.999Z,100726.83
2023-01-10T19:41:16.512Z,100717.05
2023-01-10T19:56:07.102Z,100716.03
2023-01-10T20:11:07.105Z,100709.77
2023-01-10T20:25:59.448Z,100701.70
2023-01-10T20:40:49.992Z,100702.05
2023-01-10T20:55:40.322Z,100697.74
2023-01-10T21:10:30.372Z,100684.81
2023-01-10T21:25:20.340Z,100653.56
2023-01-10T21:40:11.001Z,100637.03
2023-01-10T21:55:01.667Z,100611.72
2023-01-10T22:09:52.804Z,100592.42
2023-01-10T22:24:44.451Z,100597.72
2023-01-10T22:54:41.536Z,100559.59
2023-01-10T23:09:41.444Z,100545.59
2023-01-10T23:24:30.550Z,100541.84
2023-01-10T23:39:24.483Z,100530.20
2023-01-10T23:54:14.489Z,100539.17
